createdAt,value
2022-11-26T00:01:21.851Z,5.88
2022-11-26T00:03:49.637Z,5.78
2022-11-26T00:06:25.754Z,5.97
2022-11-26T00:08:52.813Z,5.10
2022-11-26T00:11:19.652Z,4.82
2022-11-26T00:13:48.838Z,5.35
2022-11-26T00:16:18.142Z,4.73
2022-11-26T00:18:44.842Z,4.65
2022-11-26T00:21:25.022Z,5.50
2022-11-26T00:24:26.971Z,4.60
2022-11-26T00:26:57.667Z,4.97
2022-11-26T00:29:24.392Z,4.75
2022-11-26T00:31:51.171Z,4.53
2022-11-26T00:34:20.298Z,4.90
2022-11-26T00:36:49.558Z,4.80
2022-11-26T00:39:22.540Z,4.10
2022-11-26T00:41:51.656Z,4.75
2022-11-26T00:44:21.339Z,4.77
2022-11-26T00:46:48.652Z,4.80
2022-11-26T00:49:16.478Z,5.32
2022-11-26T00:51:43.742Z,4.13
2022-11-26T00:54:14.118Z,4.32
2022-11-26T00:56:41.056Z,4.20
2022-11-26T00:59:14.605Z,4.35
2022-11-26T01:01:41.618Z,4.35
2022-11-26T01:04:08.711Z,4.18
2022-11-26T01:06:38.859Z,3.80
2022-11-26T01:09:13.338Z,4.43
2022-11-26T01:11:39.994Z,4.88
2022-11-26T01:14:07.016Z,4.78
2022-11-26T01:16:39.208Z,4.38
2022-11-26T01:19:06.430Z,4.97
2022-11-26T01:21:35.522Z,3.58
2022-11-26T01:24:02.265Z,4.23
2022-11-26T01:26:34.209Z,4.43
2022-11-26T01:29:00.880Z,5.45
2022-11-26T01:31:30.342Z,4.88
2022-11-26T01:33:57.799Z,4.85
2022-11-26T01:36:36.435Z,4.90
2022-11-26T01:39:14.636Z,4.57
2022-11-26T01:41:56.681Z,4.65
2022-11-26T01:44:29.689Z,4.57
2022-11-26T01:46:57.107Z,4.20
2022-11-26T01:49:23.781Z,4.88
2022-11-26T01:52:06.601Z,4.32
2022-11-26T01:54:36.780Z,3.83
2022-11-26T01:57:29.694Z,3.92
2022-11-26T02:00:01.459Z,4.35
2022-11-26T02:02:30.607Z,4.40
2022-11-26T02:05:18.310Z,4.23
2022-11-26T02:07:45.767Z,4.32
2022-11-26T02:10:14.087Z,3.65
2022-11-26T02:12:43.823Z,3.97
2022-11-26T02:15:12.336Z,4.72
2022-11-26T02:17:46.312Z,4.15
2022-11-26T02:20:47.715Z,5.13
2022-11-26T02:23:20.414Z,4.43
2022-11-26T02:26:01.215Z,4.40
2022-11-26T02:28:42.869Z,4.32
2022-11-26T02:31:13.739Z,4.03
2022-11-26T02:34:00.476Z,4.25
2022-11-26T02:36:54.448Z,4.05
2022-11-26T02:39:24.623Z,3.90
2022-11-26T02:41:57.054Z,3.75
2022-11-26T02:44:37.324Z,3.40
2022-11-26T02:47:10.553Z,3.83
2022-11-26T02:49:39.176Z,4.25
2022-11-26T02:52:08.402Z,3.65
2022-11-26T02:54:39.262Z,4.43
2022-11-26T02:57:09.014Z,3.65
2022-11-26T02:59:37.274Z,3.67
2022-11-26T03:02:16.125Z,3.80
2022-11-26T03:04:47.690Z,3.90
2022-11-26T03:07:15.039Z,4.22
2022-11-26T03:09:58.553Z,3.97
2022-11-26T03:12:25.614Z,4.10
2022-11-26T03:14:52.534Z,3.10
2022-11-26T03:17:19.849Z,3.28
2022-11-26T03:19:46.950Z,3.50
2022-11-26T03:22:14.564Z,3.83
2022-11-26T03:24:41.643Z,4.15
2022-11-26T03:27:08.310Z,3.45
2022-11-26T03:29:34.980Z,4.03
2022-11-26T03:32:01.892Z,4.15
2022-11-26T03:34:28.582Z,3.22
2022-11-26T03:36:55.272Z,3.42
2022-11-26T03:39:21.979Z,3.45
2022-11-26T03:41:51.113Z,3.60
2022-11-26T03:44:17.913Z,4.07
2022-11-26T03:46:47.055Z,4.10
2022-11-26T03:49:15.969Z,3.42
2022-11-26T03:51:44.944Z,3.92
2022-11-26T03:54:11.853Z,3.10
2022-11-26T03:56:43.259Z,3.20
2022-11-26T03:59:12.552Z,3.63
2022-11-26T04:01:39.992Z,3.70
2022-11-26T04:04:09.196Z,3.60
2022-11-26T04:06:38.274Z,3.47
2022-11-26T04:09:05.101Z,3.70
2022-11-26T04:11:31.812Z,4.20
2022-11-26T04:14:00.732Z,4.28
2022-11-26T04:16:27.489Z,3.90
2022-11-26T04:18:54.295Z,3.47
2022-11-26T04:21:21.004Z,3.60
2022-11-26T04:23:48.587Z,3.55
2022-11-26T04:26:15.367Z,4.22
2022-11-26T04:28:44.462Z,3.92
2022-11-26T04:31:13.817Z,3.50
2022-11-26T04:33:40.562Z,3.55
2022-11-26T04:36:08.088Z,3.75
2022-11-26T04:38:37.138Z,3.95
2022-11-26T04:41:03.912Z,4.28
2022-11-26T04:43:30.573Z,3.97
2022-11-26T04:45:59.854Z,4.00
2022-11-26T04:48:27.389Z,4.10
2022-11-26T04:50:54.179Z,4.05
2022-11-26T04:53:23.084Z,3.63
2022-11-26T04:55:50.891Z,4.20
2022-11-26T04:58:18.957Z,4.30
2022-11-26T05:00:50.644Z,4.63
2022-11-26T05:03:18.516Z,5.03
2022-11-26T05:05:45.324Z,3.83
2022-11-26T05:08:11.989Z,3.75
2022-11-26T05:10:38.712Z,3.78
2022-11-26T05:13:07.927Z,4.05
2022-11-26T05:15:37.367Z,4.50
2022-11-26T05:18:04.165Z,4.25
2022-11-26T05:20:31.351Z,4.07
2022-11-26T05:22:58.120Z,3.30
2022-11-26T05:25:27.210Z,3.65
2022-11-26T05:27:56.457Z,4.15
2022-11-26T05:30:25.592Z,3.70
2022-11-26T05:32:52.310Z,4.05
2022-11-26T05:35:18.956Z,3.92
2022-11-26T05:37:47.981Z,4.32
2022-11-26T05:40:14.939Z,4.75
2022-11-26T05:42:41.773Z,4.15
2022-11-26T05:45:09.034Z,4.07
2022-11-26T05:47:35.766Z,4.03
2022-11-26T05:50:04.966Z,4.32
2022-11-26T05:52:31.756Z,3.77
2022-11-26T05:55:01.017Z,4.28
2022-11-26T05:57:27.682Z,3.93
2022-11-26T05:59:56.799Z,3.78
2022-11-26T06:02:25.829Z,3.72
2022-11-26T06:04:52.620Z,3.42
2022-11-26T06:07:19.319Z,4.13
2022-11-26T06:09:46.039Z,4.05
2022-11-26T06:12:12.766Z,3.70
2022-11-26T06:14:43.101Z,3.92
2022-11-26T06:17:12.570Z,3.70
2022-11-26T06:19:39.796Z,3.97
2022-11-26T06:22:06.827Z,3.97
2022-11-26T06:24:33.661Z,4.90
2022-11-26T06:27:00.462Z,3.78
2022-11-26T06:29:32.123Z,4.03
2022-11-26T06:31:58.937Z,3.75
2022-11-26T06:34:25.697Z,3.90
2022-11-26T06:36:52.629Z,3.97
2022-11-26T06:39:19.336Z,3.70
2022-11-26T06:41:48.246Z,4.05
2022-11-26T06:44:15.042Z,3.75
2022-11-26T06:46:43.891Z,3.53
2022-11-26T06:49:10.822Z,3.90
2022-11-26T06:51:37.517Z,4.30
2022-11-26T06:54:04.251Z,3.63
2022-11-26T06:56:30.889Z,3.63
2022-11-26T06:58:57.676Z,3.80
2022-11-26T07:01:26.377Z,4.10
2022-11-26T07:03:54.001Z,3.97
2022-11-26T07:06:22.108Z,4.03
2022-11-26T07:08:49.702Z,4.20
2022-11-26T07:11:17.418Z,4.22
2022-11-26T07:13:44.329Z,4.10
2022-11-26T07:16:13.707Z,4.00
2022-11-26T07:18:42.853Z,3.58
2022-11-26T07:21:13.554Z,4.13
2022-11-26T07:23:40.928Z,3.95
2022-11-26T07:26:09.053Z,4.85
2022-11-26T07:28:36.225Z,3.95
2022-11-26T07:31:11.653Z,4.00
2022-11-26T07:33:41.613Z,3.90
2022-11-26T07:36:20.883Z,3.67
2022-11-26T07:38:50.235Z,4.27
2022-11-26T07:41:21.445Z,4.07
2022-11-26T07:43:48.292Z,4.25
2022-11-26T07:46:19.692Z,3.90
2022-11-26T07:48:46.637Z,3.60
2022-11-26T07:51:31.687Z,3.40
2022-11-26T07:54:07.092Z,4.13
2022-11-26T07:56:34.495Z,3.88
2022-11-26T07:59:04.184Z,3.80
2022-11-26T08:01:33.446Z,3.95
2022-11-26T08:04:03.401Z,4.27
2022-11-26T08:06:32.958Z,4.40
2022-11-26T08:09:00.708Z,4.40
2022-11-26T08:11:30.507Z,4.10
2022-11-26T08:14:03.449Z,4.60
2022-11-26T08:16:30.338Z,4.13
2022-11-26T08:18:58.997Z,3.88
2022-11-26T08:21:28.518Z,3.97
2022-11-26T08:23:56.037Z,3.78
2022-11-26T08:26:30.685Z,3.42
2022-11-26T08:29:05.170Z,3.67
2022-11-26T08:31:34.938Z,3.80
2022-11-26T08:34:03.333Z,4.03
2022-11-26T08:36:33.521Z,3.90
2022-11-26T08:39:00.904Z,4.20
2022-11-26T08:41:30.244Z,4.03
2022-11-26T08:44:06.532Z,3.80
2022-11-26T08:46:33.661Z,3.67
2022-11-26T08:49:00.412Z,3.88
2022-11-26T08:51:27.133Z,3.70
2022-11-26T08:53:53.867Z,4.47
2022-11-26T08:56:20.652Z,4.30
2022-11-26T08:58:48.894Z,4.35
2022-11-26T09:01:16.112Z,3.75
2022-11-26T09:03:43.738Z,4.15
2022-11-26T09:06:11.314Z,4.57
2022-11-26T09:08:59.816Z,3.78
2022-11-26T09:11:27.696Z,4.82
2022-11-26T09:13:54.976Z,4.57
2022-11-26T09:16:24.387Z,4.70
2022-11-26T09:18:52.065Z,4.57
2022-11-26T09:21:19.576Z,5.10
2022-11-26T09:23:46.312Z,5.00
2022-11-26T09:26:13.048Z,4.82
2022-11-26T09:28:39.846Z,5.25
2022-11-26T09:31:07.172Z,5.55
2022-11-26T09:33:33.960Z,6.13
2022-11-26T09:36:18.982Z,5.13
2022-11-26T09:38:48.156Z,5.25
2022-11-26T09:41:39.219Z,5.43
2022-11-26T09:44:45.738Z,5.82
2022-11-26T09:47:20.176Z,5.30
2022-11-26T09:50:15.437Z,5.32
2022-11-26T09:52:52.656Z,5.47
2022-11-26T09:55:33.399Z,5.03
2022-11-26T09:58:26.963Z,4.72
2022-11-26T10:00:57.790Z,4.93
2022-11-26T10:03:30.011Z,4.57
2022-11-26T10:06:05.874Z,4.78
2022-11-26T10:08:32.503Z,4.18
2022-11-26T10:11:24.604Z,4.38
2022-11-26T10:14:05.482Z,4.68
2022-11-26T10:16:56.872Z,4.70
2022-11-26T10:19:45.648Z,4.00
2022-11-26T10:22:52.734Z,4.47
2022-11-26T10:25:27.517Z,4.60
2022-11-26T10:27:56.164Z,4.65
2022-11-26T10:30:28.678Z,4.35
2022-11-26T10:33:00.605Z,4.50
2022-11-26T10:35:30.007Z,4.43
2022-11-26T10:37:59.793Z,4.82
2022-11-26T10:40:30.543Z,4.07
2022-11-26T10:43:05.982Z,4.40
2022-11-26T10:45:53.840Z,4.40
2022-11-26T10:48:33.363Z,4.88
2022-11-26T10:51:13.533Z,3.58
2022-11-26T10:54:00.962Z,3.70
2022-11-26T10:56:41.983Z,3.90
2022-11-26T10:59:45.965Z,3.70
2022-11-26T11:02:21.441Z,3.83
2022-11-26T11:04:51.693Z,3.72
2022-11-26T11:07:30.984Z,3.85
2022-11-26T11:10:09.882Z,3.60
2022-11-26T11:12:40.424Z,3.55
2022-11-26T11:15:24.297Z,3.83
2022-11-26T11:17:55.849Z,3.47
2022-11-26T11:20:42.780Z,3.47
2022-11-26T11:23:12.468Z,3.05
2022-11-26T11:25:41.869Z,3.08
2022-11-26T11:28:25.852Z,3.08
2022-11-26T11:31:03.637Z,2.88
2022-11-26T11:33:31.107Z,3.22
2022-11-26T11:36:11.858Z,3.55
2022-11-26T11:38:56.892Z,3.90
2022-11-26T11:41:26.541Z,3.83
2022-11-26T11:44:31.458Z,3.03
2022-11-26T11:47:20.924Z,3.10
2022-11-26T11:50:09.745Z,3.30
2022-11-26T11:52:58.166Z,3.60
2022-11-26T11:55:46.146Z,3.40
2022-11-26T11:58:12.853Z,3.17
2022-11-26T12:00:51.493Z,2.88
2022-11-26T12:03:39.167Z,2.78
2022-11-26T12:06:32.538Z,3.35
2022-11-26T12:09:13.409Z,3.38
2022-11-26T12:11:55.281Z,2.72
2022-11-26T12:14:42.793Z,2.97
2022-11-26T12:17:33.067Z,2.88
2022-11-26T12:20:38.353Z,2.80
2022-11-26T12:23:23.047Z,2.55
2022-11-26T12:26:06.212Z,3.15
2022-11-26T12:28:40.409Z,3.08
2022-11-26T12:31:15.634Z,2.90
2022-11-26T12:34:08.813Z,3.70
2022-11-26T12:36:56.881Z,3.08
2022-11-26T12:39:32.187Z,2.47
2022-11-26T12:42:16.803Z,2.30
2022-11-26T12:44:48.224Z,2.65
2022-11-26T12:47:25.456Z,2.83
2022-11-26T12:50:25.560Z,2.65
2022-11-26T12:53:17.341Z,2.97
2022-11-26T12:56:07.422Z,3.00
2022-11-26T12:58:59.243Z,3.05
2022-11-26T13:01:27.009Z,2.75
2022-11-26T13:04:14.392Z,2.75
2022-11-26T13:07:00.629Z,2.40
2022-11-26T13:10:01.746Z,2.80
2022-11-26T13:13:00.256Z,2.97
2022-11-26T13:15:48.246Z,2.55
2022-11-26T13:18:39.548Z,3.00
2022-11-26T13:21:34.208Z,2.47
2022-11-26T13:24:18.826Z,2.10
2022-11-26T13:27:23.978Z,2.60
2022-11-26T13:30:03.065Z,3.17
2022-11-26T13:33:03.623Z,2.40
2022-11-26T13:35:48.917Z,2.40
2022-11-26T13:38:23.860Z,3.15
2022-11-26T13:40:58.758Z,2.40
2022-11-26T13:43:37.073Z,2.90
2022-11-26T13:46:03.801Z,2.95
2022-11-26T13:48:44.300Z,3.03
2022-11-26T13:51:26.556Z,2.53
2022-11-26T13:54:16.194Z,2.42
2022-11-26T13:56:44.431Z,2.85
2022-11-26T13:59:20.072Z,2.97
2022-11-26T14:01:49.779Z,2.65
2022-11-26T14:04:22.260Z,2.42
2022-11-26T14:07:11.966Z,3.63
2022-11-26T14:09:44.609Z,2.80
2022-11-26T14:12:15.396Z,2.70
2022-11-26T14:14:43.426Z,3.38
2022-11-26T14:17:14.841Z,2.63
2022-11-26T14:19:41.495Z,2.20
2022-11-26T14:22:26.307Z,2.45
2022-11-26T14:24:58.950Z,2.53
2022-11-26T14:27:33.698Z,2.13
2022-11-26T14:30:06.254Z,2.92
2022-11-26T14:32:40.247Z,2.70
2022-11-26T14:35:34.860Z,2.30
2022-11-26T14:38:06.541Z,2.33
2022-11-26T14:40:38.031Z,2.10
2022-11-26T14:43:16.773Z,2.50
2022-11-26T14:46:02.454Z,2.28
2022-11-26T14:48:34.032Z,3.22
2022-11-26T14:51:04.697Z,2.70
2022-11-26T14:53:34.726Z,2.47
2022-11-26T14:56:02.962Z,2.90
2022-11-26T14:58:43.512Z,2.58
2022-11-26T15:01:15.985Z,2.65
2022-11-26T15:03:42.941Z,2.67
2022-11-26T15:06:30.043Z,2.35
2022-11-26T15:09:19.543Z,3.78
2022-11-26T15:11:57.891Z,2.28
2022-11-26T15:14:40.361Z,2.75
2022-11-26T15:17:10.516Z,2.90
2022-11-26T15:19:39.872Z,2.60
2022-11-26T15:22:18.338Z,2.45
2022-11-26T15:24:52.205Z,2.35
2022-11-26T15:27:34.868Z,2.65
2022-11-26T15:30:01.722Z,2.53
2022-11-26T15:32:31.153Z,2.60
2022-11-26T15:35:02.895Z,2.35
2022-11-26T15:37:29.775Z,2.50
2022-11-26T15:40:43.957Z,2.70
2022-11-26T15:43:19.604Z,2.83
2022-11-26T15:45:49.837Z,2.70
2022-11-26T15:48:50.841Z,2.60
2022-11-26T15:51:36.973Z,2.60
2022-11-26T15:54:20.359Z,2.40
2022-11-26T15:56:52.882Z,3.17
2022-11-26T15:59:21.158Z,2.90
2022-11-26T16:01:50.518Z,3.03
2022-11-26T16:04:38.495Z,3.13
2022-11-26T16:07:16.450Z,2.70
2022-11-26T16:09:44.307Z,3.05
2022-11-26T16:12:28.431Z,3.00
2022-11-26T16:15:18.654Z,3.08
2022-11-26T16:17:46.729Z,3.28
2022-11-26T16:20:18.634Z,2.90
2022-11-26T16:22:48.309Z,3.55
2022-11-26T16:25:22.033Z,3.10
2022-11-26T16:28:11.531Z,2.75
2022-11-26T16:30:40.102Z,2.75
2022-11-26T16:33:07.626Z,2.72
2022-11-26T16:35:49.906Z,2.58
2022-11-26T16:38:25.933Z,2.15
2022-11-26T16:40:55.671Z,3.08
2022-11-26T16:43:22.676Z,2.47
2022-11-26T16:45:53.107Z,2.67
2022-11-26T16:48:27.433Z,2.55
2022-11-26T16:50:55.637Z,2.63
2022-11-26T16:53:25.021Z,2.80
2022-11-26T16:55:53.497Z,2.90
2022-11-26T16:58:42.739Z,2.83
2022-11-26T17:01:11.759Z,2.95
2022-11-26T17:03:40.848Z,3.30
2022-11-26T17:06:14.281Z,3.17
2022-11-26T17:08:45.011Z,3.13
2022-11-26T17:11:14.791Z,3.20
2022-11-26T17:13:46.350Z,2.95
2022-11-26T17:16:19.217Z,3.33
2022-11-26T17:18:46.851Z,3.33
2022-11-26T17:21:13.993Z,3.05
2022-11-26T17:23:43.344Z,3.33
2022-11-26T17:26:23.616Z,2.83
2022-11-26T17:28:51.362Z,2.90
2022-11-26T17:31:18.706Z,3.35
2022-11-26T17:33:45.496Z,2.80
2022-11-26T17:36:20.955Z,3.35
2022-11-26T17:38:51.014Z,3.83
2022-11-26T17:41:17.880Z,4.50
2022-11-26T17:43:44.739Z,8.05
2022-11-26T17:46:20.737Z,7.85
2022-11-26T17:48:49.965Z,12.90
2022-11-26T17:51:20.706Z,9.30
2022-11-26T17:53:47.946Z,6.50
2022-11-26T17:56:19.821Z,5.30
2022-11-26T17:58:47.085Z,5.30
2022-11-26T18:01:17.242Z,4.93
2022-11-26T18:03:44.872Z,4.07
2022-11-26T18:06:21.896Z,4.40
2022-11-26T18:08:48.581Z,5.03
2022-11-26T18:11:16.458Z,4.10
2022-11-26T18:13:43.345Z,4.15
2022-11-26T18:16:10.145Z,4.30
2022-11-26T18:18:36.883Z,4.47
2022-11-26T18:21:03.696Z,4.05
2022-11-26T18:23:32.811Z,4.68
2022-11-26T18:26:01.995Z,4.37
2022-11-26T18:28:31.104Z,4.20
2022-11-26T18:30:59.352Z,4.97
2022-11-26T18:33:26.090Z,4.20
2022-11-26T18:35:52.868Z,5.03
2022-11-26T18:38:21.977Z,5.28
2022-11-26T18:40:59.268Z,5.20
2022-11-26T18:43:25.963Z,4.25
2022-11-26T18:45:55.122Z,3.90
2022-11-26T18:48:21.995Z,4.47
2022-11-26T18:51:00.637Z,5.18
2022-11-26T18:53:28.402Z,4.60
2022-11-26T18:55:58.826Z,4.82
2022-11-26T18:58:28.157Z,4.55
2022-11-26T19:00:58.445Z,4.32
2022-11-26T19:03:28.857Z,5.10
2022-11-26T19:05:55.930Z,4.60
2022-11-26T19:08:23.604Z,4.47
2022-11-26T19:10:50.458Z,5.93
2022-11-26T19:13:17.156Z,4.82
2022-11-26T19:15:45.012Z,4.40
2022-11-26T19:18:15.321Z,5.57
2022-11-26T19:20:49.863Z,5.07
2022-11-26T19:23:17.725Z,5.53
2022-11-26T19:25:45.631Z,4.95
2022-11-26T19:28:12.565Z,5.35
2022-11-26T19:30:41.666Z,4.90
2022-11-26T19:33:08.893Z,5.07
2022-11-26T19:35:39.943Z,5.40
2022-11-26T19:38:06.617Z,4.93
2022-11-26T19:40:33.399Z,4.30
2022-11-26T19:43:02.547Z,5.10
2022-11-26T19:45:29.258Z,5.50
2022-11-26T19:47:56.012Z,5.18
2022-11-26T19:50:22.689Z,5.07
2022-11-26T19:52:49.420Z,5.13
2022-11-26T19:55:18.724Z,5.05
2022-11-26T19:57:45.380Z,4.70
2022-11-26T20:00:15.137Z,4.85
2022-11-26T20:02:44.089Z,4.60
2022-11-26T20:05:11.245Z,5.40
2022-11-26T20:07:38.053Z,5.20
2022-11-26T20:10:10.609Z,4.88
2022-11-26T20:12:37.468Z,5.40
2022-11-26T20:15:04.546Z,5.65
2022-11-26T20:17:31.279Z,5.18
2022-11-26T20:19:58.037Z,5.63
2022-11-26T20:22:27.969Z,5.22
2022-11-26T20:24:54.893Z,5.15
2022-11-26T20:27:22.940Z,5.85
2022-11-26T20:29:52.108Z,4.93
2022-11-26T20:32:18.820Z,5.25
2022-11-26T20:34:49.207Z,5.13
2022-11-26T20:37:16.056Z,5.28
2022-11-26T20:39:42.933Z,5.20
2022-11-26T20:42:12.151Z,5.03
2022-11-26T20:44:38.854Z,5.70
2022-11-26T20:47:05.577Z,5.10
2022-11-26T20:49:36.027Z,5.63
2022-11-26T20:52:04.850Z,5.10
2022-11-26T20:54:31.792Z,5.05
2022-11-26T20:56:58.719Z,5.53
2022-11-26T20:59:25.644Z,5.25
2022-11-26T21:01:52.728Z,5.03
2022-11-26T21:04:21.673Z,5.03
2022-11-26T21:06:48.460Z,6.25
2022-11-26T21:09:17.637Z,4.78
2022-11-26T21:11:46.545Z,6.20
2022-11-26T21:14:15.168Z,4.47
2022-11-26T21:16:42.297Z,4.78
2022-11-26T21:19:12.120Z,4.90
2022-11-26T21:21:41.244Z,5.07
2022-11-26T21:24:12.655Z,5.15
2022-11-26T21:26:39.413Z,5.10
2022-11-26T21:29:06.311Z,5.18
2022-11-26T21:31:35.716Z,4.90
2022-11-26T21:34:05.257Z,6.82
2022-11-26T21:36:34.176Z,6.15
2022-11-26T21:39:04.290Z,4.75
2022-11-26T21:44:04.005Z,5.25
2022-11-26T21:46:38.650Z,4.40
2022-11-26T21:49:06.433Z,5.10
2022-11-26T21:51:33.224Z,4.50
2022-11-26T21:53:59.960Z,4.45
2022-11-26T21:56:29.043Z,4.47
2022-11-26T21:58:57.835Z,5.03
2022-11-26T22:01:30.694Z,4.68
2022-11-26T22:04:04.738Z,4.30
2022-11-26T22:06:31.648Z,4.32
2022-11-26T22:08:58.757Z,4.13
2022-11-26T22:11:28.532Z,4.38
2022-11-26T22:13:55.525Z,4.28
2022-11-26T22:16:23.913Z,3.75
2022-11-26T22:18:52.067Z,3.90
2022-11-26T22:21:31.033Z,4.75
2022-11-26T22:24:01.430Z,3.97
2022-11-26T22:26:29.470Z,4.45
2022-11-26T22:28:56.626Z,4.70
2022-11-26T22:31:34.882Z,3.90
2022-11-26T22:34:18.094Z,4.78
2022-11-26T22:36:45.434Z,4.45
2022-11-26T22:39:14.820Z,4.10
2022-11-26T22:41:44.795Z,3.75
2022-11-26T22:46:38.941Z,3.53
2022-11-26T22:49:12.843Z,3.53
2022-11-26T22:51:40.005Z,3.10
2022-11-26T22:54:08.084Z,2.95
2022-11-26T22:56:37.720Z,3.20
2022-11-26T22:59:06.071Z,3.70
2022-11-26T23:01:34.179Z,3.47
2022-11-26T23:04:03.654Z,3.95
2022-11-26T23:06:32.492Z,3.88
2022-11-26T23:09:00.535Z,3.97
2022-11-26T23:11:30.932Z,3.90
2022-11-26T23:13:57.898Z,3.22
2022-11-26T23:16:26.330Z,3.25
2022-11-26T23:18:57.075Z,2.65
2022-11-26T23:21:29.659Z,3.38
2022-11-26T23:23:59.036Z,2.97
2022-11-26T23:26:30.582Z,3.63
2022-11-26T23:28:59.062Z,4.00
2022-11-26T23:31:32.657Z,3.50
2022-11-26T23:34:00.063Z,3.42
2022-11-26T23:36:30.537Z,3.58
2022-11-26T23:39:00.036Z,2.50
2022-11-26T23:41:29.300Z,2.92
2022-11-26T23:43:58.560Z,2.57
2022-11-26T23:46:27.856Z,3.00
2022-11-26T23:48:57.728Z,2.67
2022-11-26T23:51:30.730Z,2.67
2022-11-26T23:53:57.877Z,2.75
2022-11-26T23:56:28.389Z,2.63
2022-11-26T23:58:57.729Z,2.50
